createdAt,value
2023-04-18T00:00:27.477Z,13.06
2023-04-18T00:02:55.172Z,13.12
2023-04-18T00:05:22.076Z,13.04
2023-04-18T00:07:48.906Z,13.52
2023-04-18T00:10:15.591Z,13.38
2023-04-18T00:12:43.024Z,13.24
2023-04-18T00:15:10.050Z,14.27
2023-04-18T00:17:38.559Z,13.97
2023-04-18T00:20:11.270Z,13.38
2023-04-18T00:22:42.679Z,12.82
2023-04-18T00:25:10.422Z,13.80
2023-04-18T00:27:38.186Z,12.92
2023-04-18T00:30:05.468Z,13.89
2023-04-18T00:32:32.139Z,12.59
2023-04-18T00:34:58.716Z,12.78
2023-04-18T00:37:25.184Z,12.19
2023-04-18T00:39:53.868Z,12.05
2023-04-18T00:42:21.717Z,11.76
2023-04-18T00:44:48.799Z,11.75
2023-04-18T00:47:17.462Z,11.81
2023-04-18T00:49:44.794Z,11.04
2023-04-18T00:52:11.968Z,11.16
2023-04-18T00:54:39.613Z,11.58
2023-04-18T00:57:06.226Z,11.68
2023-04-18T00:59:35.741Z,11.25
2023-04-18T01:02:03.944Z,11.24
2023-04-18T01:04:32.085Z,11.14
2023-04-18T01:06:59.475Z,11.10
2023-04-18T01:09:26.097Z,11.09
2023-04-18T01:11:52.714Z,10.95
2023-04-18T01:14:20.084Z,10.27
2023-04-18T01:16:47.349Z,10.98
2023-04-18T01:19:15.026Z,11.62
2023-04-18T01:21:43.963Z,11.36
2023-04-18T01:24:12.182Z,11.66
2023-04-18T01:26:39.313Z,11.75
2023-04-18T01:29:06.279Z,11.63
2023-04-18T01:31:36.885Z,11.27
2023-04-18T01:34:04.223Z,11.40
2023-04-18T01:36:31.940Z,12.23
2023-04-18T01:38:59.077Z,12.01
2023-04-18T01:41:25.993Z,12.66
2023-04-18T01:43:52.500Z,12.36
2023-04-18T01:46:19.064Z,12.44
2023-04-18T01:48:45.615Z,11.89
2023-04-18T01:51:12.110Z,12.52
2023-04-18T01:53:38.579Z,12.55
2023-04-18T01:56:05.431Z,12.45
2023-04-18T01:58:32.029Z,12.56
2023-04-18T02:00:58.620Z,12.03
2023-04-18T02:03:26.244Z,12.13
2023-04-18T02:05:52.960Z,12.87
2023-04-18T02:08:19.494Z,13.11
2023-04-18T02:10:46.053Z,13.15
2023-04-18T02:13:12.582Z,13.40
2023-04-18T02:15:39.206Z,12.83
2023-04-18T02:18:06.906Z,13.97
2023-04-18T02:20:33.689Z,13.29
2023-04-18T02:23:00.979Z,12.48
2023-04-18T02:25:28.921Z,12.29
2023-04-18T02:27:56.542Z,13.78
2023-04-18T02:30:23.438Z,12.96
2023-04-18T02:32:59.274Z,12.70
2023-04-18T02:35:28.111Z,12.76
2023-04-18T02:37:54.718Z,12.20
2023-04-18T02:40:21.222Z,12.69
2023-04-18T02:42:47.785Z,13.18
2023-04-18T02:45:14.284Z,12.64
2023-04-18T02:47:53.687Z,13.20
2023-04-18T02:50:22.608Z,13.43
2023-04-18T02:52:49.192Z,12.95
2023-04-18T02:55:15.802Z,12.82
2023-04-18T02:57:42.289Z,13.27
2023-04-18T03:00:09.316Z,13.41
2023-04-18T03:02:36.100Z,13.24
2023-04-18T03:05:02.818Z,12.56
2023-04-18T03:07:30.880Z,12.84
2023-04-18T03:09:57.707Z,13.26
2023-04-18T03:12:24.252Z,13.23
2023-04-18T03:14:50.879Z,13.03
2023-04-18T03:17:18.103Z,13.18
2023-04-18T03:19:45.393Z,13.44
2023-04-18T03:22:12.917Z,13.56
2023-04-18T03:24:39.447Z,12.95
2023-04-18T03:27:06.017Z,13.55
2023-04-18T03:29:32.680Z,13.69
2023-04-18T03:31:59.148Z,13.58
2023-04-18T03:34:25.692Z,13.15
2023-04-18T03:36:52.220Z,13.87
2023-04-18T03:39:18.699Z,13.52
2023-04-18T03:41:45.244Z,13.72
2023-04-18T03:44:11.971Z,13.77
2023-04-18T03:46:39.097Z,13.72
2023-04-18T03:49:05.764Z,13.74
2023-04-18T03:51:42.215Z,13.89
2023-04-18T03:54:08.827Z,13.74
2023-04-18T03:56:36.042Z,13.67
2023-04-18T03:59:02.633Z,13.82
2023-04-18T04:01:29.271Z,13.70
2023-04-18T04:03:56.033Z,13.75
2023-04-18T04:06:22.832Z,13.83
2023-04-18T04:08:49.364Z,13.99
2023-04-18T04:11:15.932Z,14.15
2023-04-18T04:13:42.553Z,13.74
2023-04-18T04:16:09.323Z,13.19
2023-04-18T04:18:35.825Z,14.60
2023-04-18T04:21:02.994Z,14.71
2023-04-18T04:23:29.528Z,14.24
2023-04-18T04:25:56.234Z,14.56
2023-04-18T04:28:23.128Z,14.00
2023-04-18T04:30:50.837Z,14.24
2023-04-18T04:33:18.512Z,14.39
2023-04-18T04:35:45.265Z,14.14
2023-04-18T04:38:12.364Z,13.59
2023-04-18T04:40:38.947Z,14.51
2023-04-18T04:43:05.569Z,13.98
2023-04-18T04:45:33.200Z,13.20
2023-04-18T04:47:59.793Z,14.31
2023-04-18T04:50:26.395Z,12.95
2023-04-18T04:52:52.921Z,13.22
2023-04-18T04:55:19.675Z,12.93
2023-04-18T04:57:47.858Z,13.50
2023-04-18T05:00:20.727Z,13.80
2023-04-18T05:02:48.170Z,13.97
2023-04-18T05:05:14.918Z,13.53
2023-04-18T05:07:41.351Z,14.29
2023-04-18T05:10:08.046Z,15.68
2023-04-18T05:12:34.534Z,17.31
2023-04-18T05:15:01.080Z,17.27
2023-04-18T05:17:27.671Z,16.08
2023-04-18T05:19:54.255Z,16.20
2023-04-18T05:22:20.818Z,16.67
2023-04-18T05:24:47.298Z,15.60
2023-04-18T05:27:18.198Z,16.03
2023-04-18T05:29:44.781Z,18.51
2023-04-18T05:32:11.912Z,19.32
2023-04-18T05:34:39.005Z,16.74
2023-04-18T05:37:05.755Z,16.55
2023-04-18T05:39:32.555Z,16.36
2023-04-18T05:41:59.071Z,16.51
2023-04-18T05:44:25.616Z,16.39
2023-04-18T05:46:52.163Z,16.20
2023-04-18T05:49:19.448Z,16.46
2023-04-18T05:51:46.672Z,22.53
2023-04-18T05:54:13.379Z,30.86
2023-04-18T05:56:40.470Z,24.96
2023-04-18T05:59:06.985Z,18.35
2023-04-18T06:01:33.526Z,22.28
2023-04-18T06:04:00.248Z,17.85
2023-04-18T06:06:27.615Z,16.01
2023-04-18T06:08:54.294Z,15.92
2023-04-18T06:11:21.263Z,16.14
2023-04-18T06:13:47.762Z,16.19
2023-04-18T06:16:14.747Z,16.08
2023-04-18T06:18:41.425Z,16.44
2023-04-18T06:21:07.970Z,15.76
2023-04-18T06:23:34.413Z,15.44
2023-04-18T06:26:00.916Z,15.84
2023-04-18T06:28:27.485Z,15.97
2023-04-18T06:30:53.998Z,15.77
2023-04-18T06:33:21.341Z,16.12
2023-04-18T06:35:47.869Z,15.23
2023-04-18T06:38:14.438Z,14.73
2023-04-18T06:40:41.050Z,14.94
2023-04-18T06:43:07.757Z,14.48
2023-04-18T06:45:34.993Z,14.13
2023-04-18T06:48:03.057Z,13.39
2023-04-18T06:50:30.633Z,13.98
2023-04-18T06:52:57.210Z,13.75
2023-04-18T06:55:23.737Z,14.55
2023-04-18T06:57:50.285Z,13.73
2023-04-18T07:00:16.900Z,13.98
2023-04-18T07:02:43.667Z,14.06
2023-04-18T07:05:10.820Z,13.61
2023-04-18T07:07:37.775Z,13.65
2023-04-18T07:10:04.641Z,12.86
2023-04-18T07:12:31.223Z,13.76
2023-04-18T07:14:57.787Z,12.90
2023-04-18T07:17:24.412Z,13.22
2023-04-18T07:19:51.041Z,12.80
2023-04-18T07:22:17.493Z,11.97
2023-04-18T07:24:44.164Z,12.54
2023-04-18T07:27:10.664Z,12.43
2023-04-18T07:29:37.351Z,12.67
2023-04-18T07:32:05.203Z,12.03
2023-04-18T07:34:33.922Z,11.89
2023-04-18T07:37:01.118Z,11.98
2023-04-18T07:39:28.263Z,12.01
2023-04-18T07:41:54.949Z,12.31
2023-04-18T07:44:21.910Z,11.84
2023-04-18T07:46:48.794Z,12.45
2023-04-18T07:49:15.864Z,12.19
2023-04-18T07:51:42.672Z,11.92
2023-04-18T07:54:11.245Z,11.64
2023-04-18T07:56:37.767Z,12.66
2023-04-18T07:59:04.319Z,11.10
2023-04-18T08:01:31.125Z,12.06
2023-04-18T08:04:01.464Z,12.49
2023-04-18T08:06:29.049Z,12.89
2023-04-18T08:08:55.702Z,12.87
2023-04-18T08:11:22.250Z,12.56
2023-04-18T08:13:48.719Z,12.20
2023-04-18T08:16:17.534Z,12.57
2023-04-18T08:18:44.335Z,12.51
2023-04-18T08:21:10.894Z,12.64
2023-04-18T08:23:37.414Z,12.58
2023-04-18T08:26:03.975Z,13.05
2023-04-18T08:28:30.605Z,12.68
2023-04-18T08:30:57.430Z,13.27
2023-04-18T08:33:24.508Z,12.77
2023-04-18T08:35:51.538Z,10.42
2023-04-18T08:38:18.296Z,11.68
2023-04-18T08:40:45.457Z,12.15
2023-04-18T08:43:14.780Z,11.63
2023-04-18T08:45:41.924Z,12.45
2023-04-18T08:48:11.357Z,11.58
2023-04-18T08:50:37.836Z,11.51
2023-04-18T08:53:04.453Z,11.55
2023-04-18T08:55:30.993Z,11.30
2023-04-18T08:57:57.493Z,11.34
2023-04-18T09:00:24.073Z,11.95
2023-04-18T09:02:56.440Z,11.72
2023-04-18T09:05:25.024Z,12.16
2023-04-18T09:07:53.130Z,11.89
2023-04-18T09:10:30.911Z,10.80
2023-04-18T09:12:59.131Z,11.77
2023-04-18T09:15:27.442Z,11.51
2023-04-18T09:17:56.453Z,10.09
2023-04-18T09:20:30.727Z,10.43
2023-04-18T09:23:00.705Z,10.86
2023-04-18T09:25:40.164Z,10.25
2023-04-18T09:28:24.856Z,10.92
2023-04-18T09:30:52.590Z,10.72
2023-04-18T09:33:28.298Z,11.06
2023-04-18T09:35:55.442Z,12.10
2023-04-18T09:38:38.532Z,11.12
2023-04-18T09:41:09.176Z,11.00
2023-04-18T09:43:35.753Z,12.42
2023-04-18T09:46:03.997Z,11.47
2023-04-18T09:48:30.832Z,11.11
2023-04-18T09:50:59.816Z,10.23
2023-04-18T09:53:26.803Z,10.47
2023-04-18T09:55:56.154Z,11.67
2023-04-18T09:58:25.272Z,11.28
2023-04-18T10:00:53.975Z,12.24
2023-04-18T10:03:24.519Z,11.33
2023-04-18T10:05:51.731Z,12.04
2023-04-18T10:08:18.456Z,12.75
2023-04-18T10:10:45.337Z,12.05
2023-04-18T10:13:14.237Z,25.88
2023-04-18T10:15:42.985Z,17.95
2023-04-18T10:18:14.432Z,15.53
2023-04-18T10:20:42.024Z,17.03
2023-04-18T10:23:28.105Z,18.36
2023-04-18T10:25:54.795Z,14.20
2023-04-18T10:28:21.445Z,16.83
2023-04-18T10:30:49.909Z,15.95
2023-04-18T10:33:31.125Z,18.14
2023-04-18T10:36:00.229Z,15.17
2023-04-18T10:38:27.260Z,13.76
2023-04-18T10:40:53.777Z,14.45
2023-04-18T10:43:20.499Z,14.84
2023-04-18T10:46:08.679Z,14.70
2023-04-18T10:48:40.916Z,13.94
2023-04-18T10:51:21.028Z,12.48
2023-04-18T10:53:56.557Z,12.85
2023-04-18T10:56:23.769Z,15.43
2023-04-18T10:58:52.285Z,13.84
2023-04-18T11:01:32.094Z,13.30
2023-04-18T11:03:59.996Z,15.06
2023-04-18T11:06:27.634Z,13.43
2023-04-18T11:09:14.165Z,14.83
2023-04-18T11:11:41.531Z,13.96
2023-04-18T11:14:08.393Z,13.72
2023-04-18T11:16:35.277Z,15.13
2023-04-18T11:19:19.025Z,14.17
2023-04-18T11:21:45.548Z,14.34
2023-04-18T11:24:12.356Z,14.42
2023-04-18T11:26:39.163Z,15.39
2023-04-18T11:29:06.194Z,16.14
2023-04-18T11:31:37.289Z,16.17
2023-04-18T11:34:03.847Z,15.74
2023-04-18T11:36:32.670Z,15.03
2023-04-18T11:38:59.203Z,14.57
2023-04-18T11:41:25.740Z,15.21
2023-04-18T11:43:52.253Z,14.47
2023-04-18T11:46:18.826Z,15.43
2023-04-18T11:48:45.531Z,15.54
2023-04-18T11:51:46.389Z,15.41
2023-04-18T11:54:31.514Z,16.69
2023-04-18T11:56:57.979Z,15.65
2023-04-18T11:59:24.533Z,15.55
2023-04-18T12:01:59.107Z,16.04
2023-04-18T12:04:25.811Z,16.09
2023-04-18T12:06:53.771Z,15.58
2023-04-18T12:09:27.049Z,16.00
2023-04-18T12:11:58.066Z,16.43
2023-04-18T12:14:24.703Z,16.55
2023-04-18T12:16:52.106Z,16.50
2023-04-18T12:19:20.627Z,16.14
2023-04-18T12:21:57.179Z,15.94
2023-04-18T12:24:25.168Z,16.11
2023-04-18T12:26:52.365Z,16.75
2023-04-18T12:29:19.067Z,16.27
2023-04-18T12:31:46.053Z,17.01
2023-04-18T12:34:12.943Z,17.02
2023-04-18T12:36:39.692Z,17.16
2023-04-18T12:39:06.334Z,17.26
2023-04-18T12:41:32.941Z,17.86
2023-04-18T12:43:59.904Z,17.71
2023-04-18T12:46:26.491Z,17.64
2023-04-18T12:48:52.957Z,16.97
2023-04-18T12:51:19.717Z,16.89
2023-04-18T12:53:46.254Z,16.41
2023-04-18T12:56:12.762Z,17.65
2023-04-18T12:58:39.309Z,16.77
2023-04-18T13:01:06.808Z,17.61
2023-04-18T13:03:34.269Z,17.10
2023-04-18T13:06:01.003Z,17.15
2023-04-18T13:08:27.496Z,16.94
2023-04-18T13:10:54.101Z,16.79
2023-04-18T13:13:20.616Z,15.94
2023-04-18T13:15:47.097Z,17.00
2023-04-18T13:18:13.692Z,16.98
2023-04-18T13:20:40.273Z,16.18
2023-04-18T13:23:06.825Z,15.92
2023-04-18T13:25:33.452Z,15.82
2023-04-18T13:28:00.964Z,17.08
2023-04-18T13:30:27.963Z,18.26
2023-04-18T13:32:55.146Z,17.37
2023-04-18T13:35:22.064Z,15.79
2023-04-18T13:37:48.801Z,15.07
2023-04-18T13:40:15.592Z,16.38
2023-04-18T13:42:43.180Z,15.62
2023-04-18T13:45:09.955Z,16.25
2023-04-18T13:47:37.401Z,15.78
2023-04-18T13:50:04.267Z,15.44
2023-04-18T13:52:30.859Z,16.06
2023-04-18T13:54:57.370Z,15.22
2023-04-18T13:57:23.967Z,15.13
2023-04-18T13:59:50.470Z,16.30
2023-04-18T14:02:17.183Z,16.31
2023-04-18T14:04:43.954Z,16.46
2023-04-18T14:07:10.812Z,17.58
2023-04-18T14:09:37.452Z,17.27
2023-04-18T14:12:04.167Z,17.59
2023-04-18T14:14:30.777Z,16.84
2023-04-18T14:16:57.362Z,17.05
2023-04-18T14:19:24.049Z,16.38
2023-04-18T14:21:50.865Z,14.89
2023-04-18T14:24:17.581Z,17.44
2023-04-18T14:26:44.183Z,16.54
2023-04-18T14:29:11.106Z,13.94
2023-04-18T14:31:38.051Z,15.54
2023-04-18T14:34:05.562Z,15.27
2023-04-18T14:36:32.657Z,16.33
2023-04-18T14:38:59.333Z,17.26
2023-04-18T14:41:26.269Z,17.04
2023-04-18T14:43:52.791Z,16.92
2023-04-18T14:46:20.890Z,15.02
2023-04-18T14:48:47.612Z,16.13
2023-04-18T14:51:17.102Z,16.65
2023-04-18T14:53:44.467Z,16.34
2023-04-18T14:56:11.028Z,14.53
2023-04-18T14:58:37.565Z,15.54
2023-04-18T15:01:04.377Z,17.60
2023-04-18T15:03:31.176Z,17.67
2023-04-18T15:05:58.083Z,17.21
2023-04-18T15:08:24.721Z,16.38
2023-04-18T15:10:51.398Z,14.87
2023-04-18T15:13:17.979Z,15.44
2023-04-18T15:15:50.918Z,14.64
2023-04-18T15:18:17.409Z,15.03
2023-04-18T15:20:44.069Z,15.91
2023-04-18T15:23:13.629Z,16.33
2023-04-18T15:25:40.806Z,15.23
2023-04-18T15:28:07.338Z,14.03
2023-04-18T15:30:34.087Z,12.71
2023-04-18T15:33:01.928Z,15.43
2023-04-18T15:35:28.406Z,13.17
2023-04-18T15:37:55.017Z,13.51
2023-04-18T15:40:21.568Z,14.61
2023-04-18T15:42:49.582Z,13.90
2023-04-18T15:45:16.639Z,14.19
2023-04-18T15:47:43.421Z,12.97
2023-04-18T15:50:10.999Z,14.60
2023-04-18T15:52:37.962Z,14.02
2023-04-18T15:55:05.350Z,14.75
2023-04-18T15:57:32.122Z,14.68
2023-04-18T15:59:59.654Z,15.43
2023-04-18T16:02:26.904Z,13.90
2023-04-18T16:04:53.544Z,14.05
2023-04-18T16:07:20.118Z,13.06
2023-04-18T16:09:46.647Z,13.39
2023-04-18T16:12:13.186Z,13.81
2023-04-18T16:14:39.679Z,14.55
2023-04-18T16:17:06.158Z,14.77
2023-04-18T16:19:34.470Z,14.43
2023-04-18T16:22:02.694Z,14.03
2023-04-18T16:24:30.282Z,11.93
2023-04-18T16:26:56.882Z,14.51
2023-04-18T16:29:23.817Z,13.38
2023-04-18T16:31:54.489Z,13.87
2023-04-18T16:34:21.923Z,14.10
2023-04-18T16:36:50.744Z,14.15
2023-04-18T16:39:18.688Z,14.67
2023-04-18T16:41:45.417Z,14.26
2023-04-18T16:44:12.074Z,13.95
2023-04-18T16:46:38.813Z,13.35
2023-04-18T16:49:05.433Z,13.65
2023-04-18T16:51:32.036Z,12.79
2023-04-18T16:53:58.483Z,13.20
2023-04-18T16:56:24.996Z,14.47
2023-04-18T16:58:51.523Z,13.80
2023-04-18T17:01:18.152Z,12.71
2023-04-18T17:03:44.870Z,12.63
2023-04-18T17:06:11.455Z,13.07
2023-04-18T17:08:38.336Z,13.53
2023-04-18T17:11:04.917Z,13.56
2023-04-18T17:13:31.559Z,12.30
2023-04-18T17:15:58.787Z,14.82
2023-04-18T17:18:25.442Z,14.71
2023-04-18T17:20:52.146Z,13.94
2023-04-18T17:23:18.726Z,14.05
2023-04-18T17:25:46.111Z,14.18
2023-04-18T17:28:14.005Z,14.18
2023-04-18T17:30:43.987Z,13.17
2023-04-18T17:33:10.996Z,14.20
2023-04-18T17:35:39.912Z,14.66
2023-04-18T17:38:06.443Z,13.84
2023-04-18T17:40:32.984Z,13.30
2023-04-18T17:42:59.538Z,13.31
2023-04-18T17:45:26.126Z,13.58
2023-04-18T17:47:52.929Z,13.88
2023-04-18T17:50:19.438Z,13.74
2023-04-18T17:52:46.489Z,14.23
2023-04-18T17:55:13.285Z,13.53
2023-04-18T17:57:39.772Z,13.41
2023-04-18T18:00:11.819Z,12.76
2023-04-18T18:02:38.571Z,13.60
2023-04-18T18:05:05.592Z,14.05
2023-04-18T18:07:34.852Z,14.72
2023-04-18T18:10:01.941Z,14.91
2023-04-18T18:12:28.461Z,14.40
2023-04-18T18:14:57.154Z,13.95
2023-04-18T18:17:23.762Z,15.23
2023-04-18T18:19:50.437Z,15.20
2023-04-18T18:22:17.768Z,14.98
2023-04-18T18:24:44.264Z,15.73
2023-04-18T18:27:10.889Z,15.79
2023-04-18T18:29:37.407Z,15.17
2023-04-18T18:32:04.110Z,14.40
2023-04-18T18:34:32.027Z,14.42
2023-04-18T18:36:58.615Z,13.90
2023-04-18T18:39:25.211Z,14.99
2023-04-18T18:41:52.181Z,14.41
2023-04-18T18:44:18.785Z,15.03
2023-04-18T18:46:45.479Z,13.51
2023-04-18T18:49:12.364Z,12.70
2023-04-18T18:51:39.140Z,11.72
2023-04-18T18:54:05.682Z,11.65
2023-04-18T18:56:32.183Z,11.15
2023-04-18T18:58:58.762Z,11.27
2023-04-18T19:01:25.382Z,11.83
2023-04-18T19:03:52.056Z,11.67
2023-04-18T19:06:18.719Z,12.19
2023-04-18T19:08:45.236Z,12.25
2023-04-18T19:11:12.775Z,12.74
2023-04-18T19:13:39.607Z,13.27
2023-04-18T19:16:06.130Z,13.97
2023-04-18T19:18:32.785Z,14.89
2023-04-18T19:20:59.328Z,14.65
2023-04-18T19:23:27.695Z,15.20
2023-04-18T19:25:54.287Z,14.97
2023-04-18T19:28:22.601Z,15.09
2023-04-18T19:30:49.756Z,15.87
2023-04-18T19:33:17.257Z,15.56
2023-04-18T19:35:43.886Z,15.87
2023-04-18T19:38:10.406Z,15.84
2023-04-18T19:40:37.144Z,16.61
2023-04-18T19:43:03.677Z,16.85
2023-04-18T19:45:30.555Z,16.89
2023-04-18T19:47:57.205Z,16.91
2023-04-18T19:50:23.885Z,16.29
2023-04-18T19:52:50.729Z,16.31
2023-04-18T19:55:17.266Z,16.53
2023-04-18T19:57:44.232Z,16.07
2023-04-18T20:00:12.794Z,15.42
2023-04-18T20:02:42.485Z,15.57
2023-04-18T20:05:09.536Z,15.83
2023-04-18T20:07:36.348Z,15.78
2023-04-18T20:10:04.372Z,15.01
2023-04-18T20:12:31.210Z,14.22
2023-04-18T20:14:58.915Z,14.45
2023-04-18T20:17:30.504Z,13.90
2023-04-18T20:19:57.551Z,14.43
2023-04-18T20:22:26.683Z,14.52
2023-04-18T20:24:53.586Z,14.48
2023-04-18T20:27:23.079Z,14.28
2023-04-18T20:29:49.695Z,14.51
2023-04-18T20:32:16.503Z,14.35
2023-04-18T20:34:43.523Z,13.91
2023-04-18T20:37:10.119Z,14.56
2023-04-18T20:39:38.100Z,14.38
2023-04-18T20:42:04.999Z,13.34
2023-04-18T20:44:34.326Z,13.28
2023-04-18T20:47:01.179Z,14.21
2023-04-18T20:49:29.559Z,13.43
2023-04-18T20:51:56.375Z,13.45
2023-04-18T20:54:23.075Z,13.08
2023-04-18T20:56:49.565Z,13.08
2023-04-18T20:59:16.031Z,12.37
2023-04-18T21:01:42.678Z,12.39
2023-04-18T21:04:09.403Z,12.59
2023-04-18T21:06:36.746Z,12.85
2023-04-18T21:09:03.603Z,12.20
2023-04-18T21:11:30.365Z,12.06
2023-04-18T21:13:56.893Z,12.69
2023-04-18T21:16:24.105Z,12.06
2023-04-18T21:18:50.732Z,12.01
2023-04-18T21:21:17.672Z,12.21
2023-04-18T21:23:44.439Z,12.17
2023-04-18T21:26:13.171Z,12.53
2023-04-18T21:28:59.581Z,11.96
2023-04-18T21:31:27.140Z,11.43
2023-04-18T21:33:58.148Z,12.17
2023-04-18T21:36:28.652Z,12.92
2023-04-18T21:38:56.059Z,11.85
2023-04-18T21:41:23.504Z,12.01
2023-04-18T21:43:50.847Z,11.55
2023-04-18T21:46:18.226Z,11.58
2023-04-18T21:48:46.358Z,11.68
2023-04-18T21:51:14.059Z,12.38
2023-04-18T21:53:41.121Z,11.72
2023-04-18T21:56:08.257Z,11.41
2023-04-18T21:58:35.268Z,12.22
2023-04-18T22:01:02.263Z,12.34
2023-04-18T22:03:29.469Z,11.86
2023-04-18T22:05:56.667Z,11.12
2023-04-18T22:08:26.277Z,11.63
2023-04-18T22:10:54.916Z,11.73
2023-04-18T22:13:21.880Z,11.69
2023-04-18T22:15:48.436Z,12.11
2023-04-18T22:18:15.167Z,11.52
2023-04-18T22:20:41.707Z,10.51
2023-04-18T22:23:09.110Z,11.49
2023-04-18T22:25:36.257Z,11.32
2023-04-18T22:28:03.636Z,11.36
2023-04-18T22:30:30.728Z,11.38
2023-04-18T22:32:58.451Z,11.76
2023-04-18T22:35:25.985Z,11.54
2023-04-18T22:37:52.531Z,11.08
2023-04-18T22:40:19.171Z,11.64
2023-04-18T22:42:45.719Z,11.52
2023-04-18T22:45:13.458Z,10.82
2023-04-18T22:47:40.133Z,11.12
2023-04-18T22:50:07.197Z,10.98
2023-04-18T22:52:34.178Z,11.05
2023-04-18T22:55:01.768Z,10.80
2023-04-18T22:57:28.399Z,11.02
2023-04-18T22:59:54.841Z,10.75
2023-04-18T23:02:21.586Z,11.16
2023-04-18T23:04:49.244Z,11.21
2023-04-18T23:07:15.842Z,10.67
2023-04-18T23:09:42.618Z,10.64
2023-04-18T23:12:09.136Z,11.29
2023-04-18T23:14:35.859Z,11.29
2023-04-18T23:17:02.663Z,11.41
2023-04-18T23:19:29.175Z,11.52
2023-04-18T23:21:55.927Z,11.07
2023-04-18T23:24:22.462Z,10.91
2023-04-18T23:26:49.069Z,11.36
2023-04-18T23:29:15.537Z,11.60
2023-04-18T23:31:42.289Z,11.56
2023-04-18T23:34:09.583Z,12.05
2023-04-18T23:36:36.925Z,11.90
2023-04-18T23:39:04.074Z,11.71
2023-04-18T23:41:30.744Z,11.75
2023-04-18T23:43:57.301Z,11.07
2023-04-18T23:46:23.816Z,11.03
2023-04-18T23:48:50.389Z,12.01
2023-04-18T23:51:16.912Z,11.21
2023-04-18T23:53:43.369Z,10.77
2023-04-18T23:56:09.944Z,11.76
2023-04-18T23:58:36.463Z,11.33
